Terminal Aerodrome Forecast
Issued by NWS

Home | Current Version | Previous Version | Text Only | Print | Product List | Glossary On
Versions: 1 2 3 4 5 6 7 8 9 10 11 12 13 14 15
000
FTAK31 PAJN 080500
TAFASI
TAF
PASI 080525Z 0806/0906 20010KT P6SM FEW006 SCT040 OVC060
     FM081000 VRB04KT P6SM VCSH BKN035 OVC060
     FM081500 29006KT P6SM BKN050 BKN080
     FM090200 24006KT P6SM -RA BKN030 OVC050=

USA.gov is the U.S. government's official web portal to all federal, state and local government web resources and services.